Wetterverlauf

Letzte Wetterlage 22.07.2014 20:32
Wetterdiagramm
Tabellarische Darstellung
Datum Temperatur Windchill Feuchte Luftdruck Windrichtung Windstärke Niederschlag
22.07.2014 20:52 22,9 °C 22,9 °C 76 % 1017,4 hPa 345 0.4 0,00 mm
22.07.2014 20:32 23,1 °C 23,1 °C 76 % 1017,4 hPa 24 0.4 0,00 mm
22.07.2014 20:12 23,8 °C 23,8 °C 76 % 1017,3 hPa 331 0.4 0,00 mm
22.07.2014 19:52 24,3 °C 24,3 °C 74 % 1017,2 hPa 321 0.9 0,00 mm
22.07.2014 19:32 24,2 °C 24,2 °C 73 % 1017,1 hPa 5 1.3 0,00 mm
22.07.2014 19:12 24,4 °C 24,4 °C 75 % 1017,1 hPa 325 1.3 0,00 mm
22.07.2014 18:52 24,6 °C 24,6 °C 76 % 1017,1 hPa 342 0.0 0,00 mm
22.07.2014 18:32 25,2 °C 25,2 °C 73 % 1016,9 hPa 75 0.4 0,00 mm
22.07.2014 18:12 25,6 °C 25,6 °C 71 % 1016,7 hPa 75 0.0 0,00 mm
22.07.2014 17:52 25,9 °C 25,9 °C 73 % 1016,7 hPa 335 0.4 0,00 mm
22.07.2014 17:32 25,8 °C 25,8 °C 70 % 1016,6 hPa 43 1.8 0,00 mm
22.07.2014 17:12 25,4 °C 25,4 °C 71 % 1016,9 hPa 68 0.4 0,00 mm
22.07.2014 16:52 25,8 °C 25,8 °C 70 % 1016,8 hPa 70 0.0 0,00 mm
22.07.2014 16:32 25,4 °C 25,0 °C 72 % 1016,9 hPa 80 2.2 0,00 mm
22.07.2014 16:12 25,3 °C 25,3 °C 72 % 1017,1 hPa 77 0.0 0,00 mm
22.07.2014 15:52 25,0 °C 25,0 °C 74 % 1017,1 hPa 70 0.0 0,00 mm
22.07.2014 15:32 24,9 °C 24,9 °C 70 % 1017,1 hPa 61 0.9 0,00 mm
22.07.2014 15:12 25,9 °C 25,6 °C 70 % 1017,1 hPa 57 2.2 0,00 mm
22.07.2014 14:52 24,8 °C 24,8 °C 72 % 1017,1 hPa 69 1.3 0,00 mm
22.07.2014 14:32 25,3 °C 24,9 °C 71 % 1017,0 hPa 323 2.2 0,00 mm
22.07.2014 14:12 25,1 °C 25,1 °C 70 % 1017,0 hPa 74 0.9 0,00 mm
22.07.2014 13:52 24,8 °C 24,8 °C 72 % 1017,1 hPa 323 1.3 0,00 mm
22.07.2014 13:32 24,4 °C 22,9 °C 73 % 1017,1 hPa 346 3.6 0,00 mm
22.07.2014 13:12 24,7 °C 24,3 °C 77 % 1017,2 hPa 340 2.2 0,00 mm
22.07.2014 12:52 23,9 °C 23,9 °C 85 % 1017,2 hPa 313 0.4 0,00 mm
Empfehlen Sie wetter.com
| Mehr
Neue Wetterwarnung

Neue Niederschlagsmeldung
Neue Meldung
Regen Liveticker
    sehr starker Regen/Gewitter
    starker Regen/Gewitter
    mäßiger bis starker Regen
    mäßiger Regen
    leichter bis mäßiger Regen
    kein Regen